Saragt, Turkmenistan

6:46 PM TMT on July 25, 2016 (GMT +0500)
Sarakhs | | Change Station

Elev 945 ft 36.50 °N, 61.06 °E | Updated 46 minutes ago

Clear
Clear
111 °F
Feels Like 110 °F
N
14
Wind Variable Wind from WNW

Today
High -- | Low -- °F
--% Chance of Precip.
Yesterday
High -- | Low -- °F
Precip. -- in
Pressure 29.59 in
Visibility -9999.0 miles
Clouds
Heat Index 110 °F
Dew Point 55 °F
Humidity 16%
Rainfall 0.00 in
Snow Depth Not available.
5:55 AM 8:06 PM
Waning Gibbous, 66% visible
METAR OIMC 251300Z 30012KT CAVOK 44/13 Q1002
Pressure 29.59 in
Visibility -9999.0 miles
Clouds
Heat Index 110 °F
Dew Point 55 °F
Humidity 16%
Rainfall 0.00 in
Snow Depth Not available.
5:55 AM 8:06 PM
Waning Gibbous, 66% visible
METAR OIMC 251300Z 30012KT CAVOK 44/13 Q1002

10-Day Weather Forecast

×

Almanac

Astronomy

Jul. 25, 2016 Rise Set
Actual Time
Civil Twilight
Nautical Twilight
Astronomical Twilight
Moon
Length of Visible Light
Length of Day
Tomorrow will be .
, % of the Moon is Illuminated

Today's Extremes

Country Highs Country Lows

Community

WunderPhotos

Upload Photos

1,927,300 photos uploaded!

WunderBlog® & News

Nearby

Air Quality

  Air Quality AQ Index Pollutant
Not available.

Snow Depth

Station Depth Elevation

Earthquake Activity

City Distance Mag. Time & Date
Minimum magnitude displayed is 2.5.

Coastal Water Temperatures

Place Temperature

Stations

Nearby Weather Stations

Station Location Temp. Windchill Dew Point Humidity Wind Precip. Elev Updated Type